Airfield :
LOGIN :

Register | Disclaimer

   EN    FR    IT 

 










Legend :    VFR   Marginal VFR   IFR   Intensive IFR   Very Intensive IFR
Visi :
Ceiling :
>= 8 km
>= 3000ft
5 to 8 km
1000 to 3000 ft
1500m to 5 km
500 to 1000 ft
800 to 1500m
200 to 500 ft
< 800m
< 200 ft
Symbols :   Thunderstorms  Fog  Heavy snow  Heavy precipitations  Wind > 20 kt
SIGMETs :     Misc.  Thunderstorms  Icing  Turbulence  Mountain Waves  Volcanic Ashes






- Airport Elevation : 197 ft
- IATA code : XOG


LFMO - Orange

CURRENT METAR :
  • 280730Z AUTO 01005KT 8000 RA BKN034/// BKN042/// OVC056/// ///TCU 08/07 Q1015 TEMPO SCT020CB BKN030

EXPIRED METARs :
  • 280700Z AUTO 34003KT 5000 -RA BR SCT034/// BKN040/// BKN049/// ///CB 08/07 Q1015 TEMPO BKN014
  • 280630Z AUTO 34003KT 8000 -RA OVC064/// ///CB 08/07 Q1016 TEMPO 4000 -RA BKN014
  • 280600Z AUTO 29003KT 9999 -RA FEW034/// BKN062/// OVC072/// ///CB 08/07 Q1016 TEMPO 4000 -RA BKN014
  • 280530Z AUTO 00000KT 9999 BKN056/// BKN072/// OVC082/// ///TCU 08/07 Q1016 TEMPO 4000 -RA BKN014
  • 280500Z AUTO 00000KT 9999 FEW035 SCT045 BKN056 08/07 Q1016 TEMPO 4000 -RA BKN014

TAF AMD TAF LFMO
Valid from the 28 at 06:00 until the 29 at 03:00 UTC


280647Z 2806/2903 VRB02KT 8000 BKN030 TX11/2814Z TN08/2806Z
TEMPO 2808/2811 RA SCT020CB BKN030
TEMPO 2809/2815 36010KT



MET'MAP, your aeronautical weather chart ! - Copyright ORBIFLY December 2007 - Disclaimer

ORBIFLY MET'MAP TEAM :

Programming & Development : Alexandra Zaïnal
Original concept : Baudouin d'Aumeries
Technical & hardware support : Manuel Goepfert
Assistance : Marc-Olivier Méhu




SOURCES & CREDITS :

   NOAA